Newtown, North Dakota
Current Conditions -  °F | °C
As of 6:15 AM on Friday 31 Oct 2014 (Local Time) from K08D Reporting Station
Overcast Overcast  
Wind Chill: 12°   Ceiling: 1600
Heat Index: 25°   Visibility: 10mi
Dew Point: 25°   Wind: 16mph
Humidity: 100%   Direction: 160°SSE
Pressure: 30.42"   Gusts: 22mph
Location:  47.9603°N, 102.491°W
Report Text: K08D 311115Z AUTO 16014G19KT 10SM OVC016 M04/M04 A3042 RMK AO2
Loading
Personal Weather Stations






























Interactive Weather Map
Tropical Storm Tracking
New forecast layout! Learn more

10-Day Weather Forecast

Advertisements
Track Severe Weather on mobile